createdAt,value
2022-11-10T12:23:01.774Z,17.23
2022-11-10T12:24:06.045Z,17.75
2022-11-10T12:25:01.720Z,17.72
2022-11-10T12:26:01.697Z,17.79
2022-11-10T12:27:01.688Z,17.84
2022-11-10T12:28:01.662Z,17.99
2022-11-10T12:29:01.642Z,18.25
2022-11-10T12:30:01.630Z,18.23
2022-11-10T12:31:02.086Z,18.42
2022-11-10T12:32:01.592Z,18.88
2022-11-10T12:33:01.568Z,18.88
2022-11-10T12:34:01.551Z,19.14
2022-11-10T12:35:01.551Z,19.31
2022-11-10T12:36:01.517Z,19.25
2022-11-10T12:37:01.504Z,19.21
2022-11-10T12:38:01.484Z,19.28
2022-11-10T12:39:01.533Z,19.41
2022-11-10T12:40:01.457Z,19.07
2022-11-10T12:41:01.443Z,19.13
2022-11-10T12:42:01.411Z,19.26
2022-11-10T12:43:01.392Z,19.55
2022-11-10T12:44:01.375Z,19.39
2022-11-10T12:45:01.376Z,19.21
2022-11-10T12:46:01.341Z,18.88
2022-11-10T12:47:01.326Z,18.55
2022-11-10T12:48:01.302Z,18.41
2022-11-10T12:49:01.283Z,18.52
2022-11-10T12:50:01.274Z,18.69
2022-11-10T12:51:01.261Z,18.42
2022-11-10T12:52:01.235Z,18.85
2022-11-10T12:53:03.096Z,18.91
2022-11-10T12:54:01.203Z,19.46
2022-11-10T12:55:01.206Z,19.69
2022-11-10T12:56:01.161Z,20.01
2022-11-10T12:57:01.160Z,20.11
2022-11-10T12:58:01.127Z,19.88
2022-11-10T12:59:01.123Z,19.80
2022-11-10T13:00:01.115Z,20.14
2022-11-10T13:01:01.097Z,20.13
2022-11-10T13:02:01.069Z,20.26
2022-11-10T13:03:01.054Z,20.42
2022-11-10T13:04:01.057Z,20.70
2022-11-10T13:05:01.027Z,20.72
2022-11-10T13:06:01.017Z,21.06
2022-11-10T13:07:01.025Z,21.04
2022-11-10T13:08:00.979Z,20.14
2022-11-10T13:09:00.949Z,20.06
2022-11-10T13:10:00.948Z,19.96
2022-11-10T13:11:00.921Z,20.14
2022-11-10T13:12:00.910Z,19.71
2022-11-10T13:13:00.893Z,19.69
2022-11-10T13:14:00.877Z,19.14
2022-11-10T13:15:00.874Z,18.98
2022-11-10T13:16:00.842Z,18.26
2022-11-10T13:17:00.821Z,18.07
2022-11-10T13:18:00.802Z,17.97
2022-11-10T13:19:00.797Z,17.93
2022-11-10T13:20:14.447Z,17.52
2022-11-10T13:21:00.767Z,17.66
2022-11-10T13:22:00.741Z,17.95
2022-11-10T13:23:00.725Z,18.17
2022-11-10T13:24:00.715Z,18.44
2022-11-10T13:25:00.735Z,18.90
2022-11-10T13:26:00.685Z,18.75
2022-11-10T13:27:00.673Z,19.19
2022-11-10T13:28:00.641Z,19.61
2022-11-10T13:29:00.638Z,19.43
2022-11-10T13:30:00.647Z,19.46
2022-11-10T13:31:00.622Z,19.48
2022-11-10T13:32:00.578Z,19.80
2022-11-10T13:33:00.567Z,19.88
2022-11-10T13:34:00.544Z,19.98
2022-11-10T13:35:00.541Z,20.26
2022-11-10T13:36:00.529Z,20.28
2022-11-10T13:37:00.503Z,19.78
2022-11-10T13:38:00.494Z,19.00
2022-11-10T13:39:00.468Z,18.15
2022-11-10T13:40:00.474Z,17.34
2022-11-10T13:41:00.449Z,17.18
2022-11-10T13:42:00.433Z,16.82
2022-11-10T13:43:00.429Z,16.61
2022-11-10T13:44:00.397Z,16.58
2022-11-10T13:45:00.383Z,16.43
2022-11-10T13:46:00.354Z,16.25
2022-11-10T13:47:00.340Z,16.34
2022-11-10T13:48:00.323Z,16.20
